Unser Flugplatzteam

Segelflugzeugschlepp am Flugplatz Konstanz

Unsere freundlichen Mitarbeiter stehen Ihnen gerne mit Rat und Tat zur Seite:

Robert Leitner

Flugleiter, Landesbeauftragter für Luftaufsicht am Verkehrlandeplatz Konstanz

Minky Schweizer

Flugleiterin

Live am Platz

Die Bilder unserer Webcams werden alle 5 Minuten aktualisiert.

Sonnenaufgang:

04:22 UTC / 06:22 Lokal

Sonnenuntergang:

18:21 UTC / 20:21 Lokal

METAR (20.04.2021 09:20 UTC):

EDNY 200920Z 12003KT 9999 FEW026 10/04 Q1017
VFR

TAF (20.04.2021 05:41 UTC):

TAF COR EDNY 200541Z 2006/2106 VRB03KT CAVOK BECMG 2010/2012 24005KT BECMG 2014/2016 02004KT PROB40 TEMPO 2102/2106 4000 BR

Alle Angaben unverbindlich und ohne Gewähr. Zeiten genähert.

Für den Verkehrslandeplatz Konstanz werden keine offiziellen Wetterinformationen ausgegeben. Daher werden zur Orientierung Daten des nahegelegenen Flughafens Friedrichshafen dargestellt.

Das Landeentgelt kann bei uns auch mit aerops bezahlt werden. Die App für's Handy ist kostenfrei erhältlich.